createdAt,value
2023-01-05T00:00:09.395Z,99498.13
2023-01-05T00:05:10.926Z,99466.63
2023-01-05T00:10:32.312Z,99471.13
2023-01-05T00:15:52.156Z,99461.75
2023-01-05T00:21:12.809Z,99446.16
2023-01-05T00:26:14.232Z,99451.56
2023-01-05T00:31:15.928Z,99436.38
2023-01-05T00:36:17.394Z,99432.28
2023-01-05T00:41:18.812Z,99434.25
2023-01-05T00:46:20.307Z,99426.59
2023-01-05T00:51:21.751Z,99433.69
2023-01-05T00:56:23.152Z,99419.94
2023-01-05T01:01:24.856Z,99411.16
2023-01-05T01:06:27.857Z,99415.56
2023-01-05T01:11:29.266Z,99413.69
2023-01-05T01:16:31.058Z,99414.97
2023-01-05T01:21:32.678Z,99410.31
2023-01-05T01:26:34.327Z,99423.38
2023-01-05T01:31:35.798Z,99414.72
2023-01-05T01:36:37.241Z,99410.75
2023-01-05T01:41:38.888Z,99409.91
2023-01-05T01:46:40.315Z,99412.75
2023-01-05T01:51:47.746Z,99410.88
2023-01-05T01:56:55.228Z,99412.44
2023-01-05T02:02:00.704Z,99389.69
2023-01-05T02:07:03.549Z,99395.25
2023-01-05T02:12:48.922Z,99391.13
2023-01-05T02:18:09.618Z,99374.47
2023-01-05T02:23:32.189Z,99380.03
2023-01-05T02:28:53.117Z,99389.28
2023-01-05T02:34:09.676Z,99384.88
2023-01-05T02:39:21.173Z,99366.13
2023-01-05T02:44:23.027Z,99364.84
2023-01-05T02:49:24.841Z,99370.38
2023-01-05T02:54:38.936Z,99372.09
2023-01-05T02:59:51.772Z,99382.91
2023-01-05T03:05:10.128Z,99391.41
2023-01-05T03:10:32.769Z,99373.78
2023-01-05T03:15:37.676Z,99375.47
2023-01-05T03:20:44.203Z,99382.47
2023-01-05T03:26:06.625Z,99387.72
2023-01-05T03:31:36.967Z,99378.91
2023-01-05T03:36:47.665Z,99382.19
2023-01-05T03:41:49.088Z,99378.06
2023-01-05T03:46:51.795Z,99386.88
2023-01-05T03:51:53.262Z,99379.03
2023-01-05T03:56:54.679Z,99384.44
2023-01-05T04:01:56.257Z,99383.88
2023-01-05T04:06:57.745Z,99397.94
2023-01-05T04:12:00.532Z,99402.19
2023-01-05T04:17:01.964Z,99393.25
2023-01-05T04:22:03.398Z,99402.22
2023-01-05T04:27:04.837Z,99392.66
2023-01-05T04:32:06.350Z,99406.44
2023-01-05T04:37:07.792Z,99423.16
2023-01-05T04:42:09.289Z,99429.28
2023-01-05T04:47:10.719Z,99416.34
2023-01-05T04:52:12.205Z,99403.22
2023-01-05T04:57:13.638Z,99419.84
2023-01-05T05:02:15.366Z,99413.88
2023-01-05T05:07:16.979Z,99430.63
2023-01-05T05:12:21.728Z,99414.53
2023-01-05T05:17:23.213Z,99430.38
2023-01-05T05:22:25.043Z,99407.63
2023-01-05T05:27:26.602Z,99419.56
2023-01-05T05:32:28.019Z,99413.97
2023-01-05T05:37:29.447Z,99434.09
2023-01-05T05:42:30.895Z,99435.00
2023-01-05T05:47:32.414Z,99426.63
2023-01-05T05:52:33.838Z,99429.88
2023-01-05T05:57:35.293Z,99431.25
2023-01-05T06:02:36.874Z,99440.78
2023-01-05T06:07:38.467Z,99447.34
2023-01-05T06:12:39.899Z,99445.13
2023-01-05T06:17:41.366Z,99452.97
2023-01-05T06:22:43.928Z,99442.09
2023-01-05T06:27:45.372Z,99443.78
2023-01-05T06:32:46.765Z,99440.91
2023-01-05T06:37:48.203Z,99438.47
2023-01-05T06:42:49.740Z,99434.03
2023-01-05T06:47:51.253Z,99441.25
2023-01-05T06:52:52.659Z,99443.84
2023-01-05T06:58:00.239Z,99439.09
2023-01-05T07:03:02.385Z,99437.31
2023-01-05T07:08:04.134Z,99453.16
2023-01-05T07:13:05.624Z,99449.56
2023-01-05T07:18:07.203Z,99461.16
2023-01-05T07:23:08.641Z,99463.66
2023-01-05T07:28:10.045Z,99464.56
2023-01-05T07:33:11.457Z,99478.97
2023-01-05T07:38:13.185Z,99464.66
2023-01-05T07:43:14.595Z,99479.28
2023-01-05T07:48:21.844Z,99472.84
2023-01-05T07:53:24.873Z,99467.47
2023-01-05T07:58:27.931Z,99487.84
2023-01-05T08:03:29.343Z,99490.19
2023-01-05T08:08:30.823Z,99488.38
2023-01-05T08:13:51.471Z,99506.25
2023-01-05T08:18:53.873Z,99494.38
2023-01-05T08:23:55.413Z,99490.03
2023-01-05T08:28:56.859Z,99499.13
2023-01-05T08:34:00.164Z,99484.47
2023-01-05T08:39:02.329Z,99500.13
2023-01-05T08:44:06.752Z,99498.38
2023-01-05T08:49:09.705Z,99483.22
2023-01-05T08:54:11.229Z,99506.41
2023-01-05T08:59:14.246Z,99487.53
2023-01-05T09:04:15.945Z,99521.44
2023-01-05T09:09:17.389Z,99513.84
2023-01-05T09:14:19.161Z,99516.47
2023-01-05T09:19:20.587Z,99510.88
2023-01-05T09:24:22.193Z,99525.41
2023-01-05T09:29:23.663Z,99510.09
2023-01-05T09:34:25.161Z,99541.22
2023-01-05T09:39:26.722Z,99523.69
2023-01-05T09:44:36.938Z,99533.53
2023-01-05T09:49:40.700Z,99556.25
2023-01-05T09:54:42.200Z,99553.91
2023-01-05T09:59:46.313Z,99548.41
2023-01-05T10:04:48.937Z,99550.41
2023-01-05T10:09:53.478Z,99528.94
2023-01-05T10:15:17.536Z,99531.69
2023-01-05T10:20:24.288Z,99531.22
2023-01-05T10:25:37.447Z,99536.63
2023-01-05T10:30:54.102Z,99521.81
2023-01-05T10:36:05.115Z,99504.00
2023-01-05T10:41:44.899Z,99507.44
2023-01-05T10:46:52.405Z,99485.09
2023-01-05T10:51:58.094Z,99582.31
2023-01-05T10:57:34.204Z,99595.72
2023-01-05T11:02:40.154Z,99590.09
2023-01-05T11:07:53.899Z,99582.22
2023-01-05T11:13:02.301Z,99578.91
2023-01-05T11:18:03.819Z,99577.31
2023-01-05T11:23:05.281Z,99568.28
2023-01-05T11:28:16.987Z,99550.88
2023-01-05T11:33:25.830Z,99577.81
2023-01-05T11:38:29.636Z,99606.63
2023-01-05T11:43:33.354Z,99590.53
2023-01-05T11:48:36.155Z,99596.88
2023-01-05T11:53:39.953Z,99601.25
2023-01-05T11:58:45.928Z,99596.28
2023-01-05T12:04:07.692Z,99585.66
2023-01-05T12:09:23.385Z,99573.56
2023-01-05T12:14:42.729Z,99594.25
2023-01-05T12:19:54.335Z,99600.53
2023-01-05T12:25:15.046Z,99607.13
2023-01-05T12:32:55.125Z,99610.31
2023-01-05T12:36:01.206Z,99590.09
2023-01-05T12:41:11.414Z,99593.69
2023-01-05T12:46:18.887Z,99606.19
2023-01-05T12:51:46.837Z,99611.13
2023-01-05T12:56:54.044Z,99607.00
2023-01-05T13:02:07.767Z,99603.44
2023-01-05T13:07:23.214Z,99607.63
2023-01-05T13:12:24.967Z,99619.44
2023-01-05T13:17:32.150Z,99611.03
2023-01-05T13:22:38.958Z,99633.53
2023-01-05T13:27:40.370Z,99603.44
2023-01-05T13:32:54.698Z,99598.53
2023-01-05T13:38:17.528Z,99599.66
2023-01-05T13:43:37.835Z,99602.91
2023-01-05T13:49:23.565Z,99595.22
2023-01-05T13:55:03.167Z,99623.13
2023-01-05T14:00:12.418Z,99634.28
2023-01-05T14:05:24.828Z,99651.47
2023-01-05T14:10:30.073Z,99652.53
2023-01-05T14:15:36.443Z,99647.34
2023-01-05T14:20:40.980Z,99669.31
2023-01-05T14:26:06.495Z,99684.31
2023-01-05T14:31:07.884Z,99687.88
2023-01-05T14:36:25.205Z,99726.22
2023-01-05T14:41:28.912Z,99715.09
2023-01-05T14:46:46.520Z,99717.84
2023-01-05T14:51:56.426Z,99734.81
2023-01-05T14:57:43.365Z,99730.63
2023-01-05T15:03:12.728Z,99734.53
2023-01-05T15:08:32.583Z,99754.91
2023-01-05T15:14:24.932Z,99788.34
2023-01-05T15:19:44.844Z,99765.22
2023-01-05T15:25:09.090Z,99774.03
2023-01-05T15:30:22.254Z,99802.50
2023-01-05T15:35:37.938Z,99804.94
2023-01-05T15:40:39.442Z,99800.34
2023-01-05T15:45:43.288Z,99831.78
2023-01-05T15:50:47.397Z,99824.53
2023-01-05T15:55:51.947Z,99849.16
2023-01-05T16:01:06.295Z,99859.56
2023-01-05T16:06:07.934Z,99868.66
2023-01-05T16:11:11.486Z,99894.25
2023-01-05T16:16:50.479Z,99887.75
2023-01-05T16:21:49.358Z,99906.88
2023-01-05T16:26:50.872Z,99909.06
2023-01-05T16:31:56.489Z,99908.69
2023-01-05T16:37:17.335Z,99932.16
2023-01-05T16:42:40.267Z,99928.13
2023-01-05T16:47:42.093Z,99958.56
2023-01-05T16:52:53.104Z,99961.94
2023-01-05T16:57:54.883Z,99965.09
2023-01-05T17:02:58.235Z,99979.66
2023-01-05T17:08:06.424Z,100001.50
2023-01-05T17:13:14.466Z,99997.75
2023-01-05T17:23:28.145Z,100005.84
2023-01-05T17:28:29.587Z,100009.25
2023-01-05T17:33:31.032Z,100024.69
2023-01-05T17:38:32.560Z,100030.44
2023-01-05T17:43:33.984Z,100051.91
2023-01-05T17:48:35.443Z,100043.75
2023-01-05T17:53:36.867Z,100054.31
2023-01-05T17:58:39.070Z,100093.63
2023-01-05T18:03:40.525Z,100084.84
2023-01-05T18:13:44.316Z,100104.50
2023-01-05T18:18:45.763Z,100109.06
2023-01-05T18:23:47.273Z,100117.78
2023-01-05T18:28:48.724Z,100130.53
2023-01-05T18:33:50.185Z,100121.00
2023-01-05T18:38:51.640Z,100117.53
2023-01-05T18:43:53.230Z,100142.31
2023-01-05T18:48:54.703Z,100149.34
2023-01-05T18:53:56.129Z,100175.41
2023-01-05T18:58:57.592Z,100171.09
2023-01-05T19:03:58.993Z,100178.84
2023-01-05T19:09:04.069Z,100196.69
2023-01-05T19:14:06.262Z,100209.72
2023-01-05T19:19:11.393Z,100223.38
2023-01-05T19:24:18.243Z,100221.69
2023-01-05T19:29:20.640Z,100239.06
2023-01-05T19:34:22.168Z,100265.09
2023-01-05T19:39:23.597Z,100267.06
2023-01-05T19:44:25.018Z,100254.03
2023-01-05T19:49:27.799Z,100293.84
2023-01-05T19:54:29.320Z,100306.22
2023-01-05T19:59:33.723Z,100295.03
2023-01-05T20:04:35.391Z,100292.44
2023-01-05T20:09:37.281Z,100285.44
2023-01-05T20:14:38.730Z,100301.22
2023-01-05T20:19:40.940Z,100318.22
2023-01-05T20:24:42.989Z,100318.41
2023-01-05T20:29:44.483Z,100346.97
2023-01-05T20:34:51.907Z,100352.97
2023-01-05T20:39:58.998Z,100355.25
2023-01-05T20:45:02.905Z,100379.25
2023-01-05T20:50:06.302Z,100370.75
2023-01-05T20:55:11.388Z,100407.06
2023-01-05T21:00:15.572Z,100410.09
2023-01-05T21:05:17.604Z,100409.59
2023-01-05T21:10:19.751Z,100424.69
2023-01-05T21:15:21.222Z,100436.69
2023-01-05T21:20:22.673Z,100448.75
2023-01-05T21:25:24.151Z,100452.00
2023-01-05T21:30:25.570Z,100484.59
2023-01-05T21:35:27.061Z,100472.31
2023-01-05T21:40:28.965Z,100480.84
2023-01-05T21:45:30.751Z,100485.16
2023-01-05T21:50:50.658Z,100502.56
2023-01-05T21:56:10.809Z,100482.56
2023-01-05T22:01:12.484Z,100510.63
2023-01-05T22:06:13.937Z,100498.00
2023-01-05T22:11:15.542Z,100515.66
2023-01-05T22:16:17.043Z,100515.06
2023-01-05T22:21:18.665Z,100536.94
2023-01-05T22:26:20.564Z,100538.84
2023-01-05T22:31:25.892Z,100550.03
2023-01-05T22:36:29.169Z,100541.09
2023-01-05T22:41:31.602Z,100562.09
2023-01-05T22:46:34.146Z,100551.63
2023-01-05T22:51:37.435Z,100558.72
2023-01-05T22:56:39.624Z,100576.19
2023-01-05T23:01:43.234Z,100589.03
2023-01-05T23:06:44.790Z,100595.34
2023-01-05T23:11:46.981Z,100595.84
2023-01-05T23:16:48.530Z,100601.53
2023-01-05T23:21:50.003Z,100620.69
2023-01-05T23:26:51.435Z,100611.44
2023-01-05T23:31:52.992Z,100619.59
2023-01-05T23:36:54.463Z,100619.91
2023-01-05T23:41:55.978Z,100633.69
2023-01-05T23:46:57.452Z,100634.66
2023-01-05T23:51:58.911Z,100631.47
2023-01-05T23:57:00.317Z,100637.00
